createdAt,value
2022-09-23T00:00:14.638Z,95623.63
2022-09-23T00:04:00.106Z,95627.25
2022-09-23T00:07:42.827Z,95620.75
2022-09-23T00:11:27.849Z,95624.75
2022-09-23T00:15:11.718Z,95611.38
2022-09-23T00:18:55.983Z,95617.81
2022-09-23T00:22:38.777Z,95613.75
2022-09-23T00:26:22.524Z,95608.88
2022-09-23T00:30:06.871Z,95605.63
2022-09-23T00:33:55.133Z,95600.13
2022-09-23T00:37:40.916Z,95597.41
2022-09-23T00:41:23.953Z,95608.25
2022-09-23T00:45:11.099Z,95599.75
2022-09-23T00:48:58.792Z,95589.03
2022-09-23T00:52:41.649Z,95590.94
2022-09-23T00:56:24.982Z,95590.06
2022-09-23T01:00:09.511Z,95584.81
2022-09-23T01:03:53.554Z,95582.19
2022-09-23T01:07:37.678Z,95581.25
2022-09-23T01:11:30.097Z,95570.97
2022-09-23T01:15:16.649Z,95573.16
2022-09-23T01:19:08.396Z,95564.66
2022-09-23T01:22:58.856Z,95569.00
2022-09-23T01:27:04.165Z,95559.22
2022-09-23T01:30:51.775Z,95567.63
2022-09-23T01:34:37.364Z,95561.94
2022-09-23T01:38:28.086Z,95553.81
2022-09-23T01:42:21.897Z,95566.47
2022-09-23T01:46:09.833Z,95547.69
2022-09-23T01:49:55.272Z,95542.00
2022-09-23T01:53:40.799Z,95543.16
2022-09-23T01:57:26.592Z,95538.75
2022-09-23T02:01:14.284Z,95541.53
2022-09-23T02:05:00.287Z,95544.88
2022-09-23T02:08:45.516Z,95543.09
2022-09-23T02:12:29.515Z,95546.59
2022-09-23T02:16:19.293Z,95550.22
2022-09-23T02:20:05.970Z,95544.97
2022-09-23T02:23:52.129Z,95547.41
2022-09-23T02:27:40.721Z,95552.09
2022-09-23T02:31:31.167Z,95546.41
2022-09-23T02:35:19.034Z,95551.66
2022-09-23T02:39:04.779Z,95546.06
2022-09-23T02:42:54.071Z,95541.06
2022-09-23T02:46:38.336Z,95543.66
2022-09-23T02:50:22.648Z,95539.16
2022-09-23T02:54:07.603Z,95541.41
2022-09-23T02:57:50.688Z,95539.25
2022-09-23T03:01:39.726Z,95541.84
2022-09-23T03:05:24.998Z,95529.13
2022-09-23T03:09:11.758Z,95534.81
2022-09-23T03:13:04.500Z,95530.41
2022-09-23T03:16:56.853Z,95524.72
2022-09-23T03:20:43.862Z,95526.69
2022-09-23T03:24:27.252Z,95527.06
2022-09-23T03:28:10.753Z,95522.19
2022-09-23T03:31:57.383Z,95529.38
2022-09-23T03:36:00.190Z,95526.50
2022-09-23T03:39:44.745Z,95530.75
2022-09-23T03:43:27.555Z,95525.50
2022-09-23T03:47:12.460Z,95519.28
2022-09-23T03:50:57.520Z,95523.69
2022-09-23T03:54:40.442Z,95522.78
2022-09-23T03:58:23.735Z,95519.53
2022-09-23T04:02:07.795Z,95509.63
2022-09-23T04:05:52.335Z,95515.72
2022-09-23T04:09:35.118Z,95509.38
2022-09-23T04:13:18.040Z,95509.09
2022-09-23T04:17:00.731Z,95502.31
2022-09-23T04:20:43.374Z,95503.28
2022-09-23T04:24:27.696Z,95505.78
2022-09-23T04:28:10.391Z,95501.72
2022-09-23T04:31:53.494Z,95499.47
2022-09-23T04:35:40.153Z,95507.47
2022-09-23T04:39:23.283Z,95492.97
2022-09-23T04:43:11.673Z,95501.34
2022-09-23T04:46:56.231Z,95502.50
2022-09-23T04:50:39.660Z,95507.88
2022-09-23T04:54:22.431Z,95506.44
2022-09-23T04:58:05.148Z,95514.91
2022-09-23T05:01:51.721Z,95508.41
2022-09-23T05:05:35.430Z,95505.16
2022-09-23T05:09:18.577Z,95514.00
2022-09-23T05:13:02.405Z,95509.91
2022-09-23T05:16:45.146Z,95517.13
2022-09-23T05:20:29.633Z,95519.56
2022-09-23T05:24:13.499Z,95519.91
2022-09-23T05:27:56.269Z,95515.34
2022-09-23T05:31:39.011Z,95510.38
2022-09-23T05:35:21.929Z,95526.41
2022-09-23T05:39:06.799Z,95528.72
2022-09-23T05:42:51.393Z,95528.00
2022-09-23T05:46:34.373Z,95523.50
2022-09-23T05:50:17.285Z,95518.28
2022-09-23T05:54:04.279Z,95521.75
2022-09-23T05:57:48.723Z,95519.31
2022-09-23T06:01:33.984Z,95521.50
2022-09-23T06:05:17.418Z,95518.81
2022-09-23T06:09:00.542Z,95522.59
2022-09-23T06:12:44.503Z,95507.41
2022-09-23T06:16:33.556Z,95510.38
2022-09-23T06:20:18.909Z,95503.59
2022-09-23T06:24:02.710Z,95509.94
2022-09-23T06:27:45.784Z,95512.72
2022-09-23T06:31:28.959Z,95507.22
2022-09-23T06:35:25.136Z,95505.75
2022-09-23T06:39:09.521Z,95505.59
2022-09-23T06:42:58.664Z,95513.38
2022-09-23T06:46:41.526Z,95513.00
2022-09-23T06:50:26.899Z,95503.66
2022-09-23T06:54:10.985Z,95512.06
2022-09-23T06:57:54.050Z,95501.34
2022-09-23T07:01:36.889Z,95517.47
2022-09-23T07:05:19.726Z,95511.72
2022-09-23T07:09:05.823Z,95511.47
2022-09-23T07:12:48.560Z,95515.06
2022-09-23T07:16:31.686Z,95518.84
2022-09-23T07:20:14.425Z,95508.84
2022-09-23T07:23:58.023Z,95507.53
2022-09-23T07:27:42.168Z,95516.94
2022-09-23T07:31:37.126Z,95514.00
2022-09-23T07:35:21.733Z,95513.84
2022-09-23T07:39:05.224Z,95519.97
2022-09-23T07:42:49.348Z,95518.38
2022-09-23T07:46:34.041Z,95518.84
2022-09-23T07:50:16.849Z,95517.25
2022-09-23T07:54:00.293Z,95519.31
2022-09-23T07:57:43.066Z,95519.72
2022-09-23T08:01:27.738Z,95526.19
2022-09-23T08:05:11.152Z,95524.59
2022-09-23T08:08:54.314Z,95538.75
2022-09-23T08:12:37.007Z,95532.31
2022-09-23T08:16:19.893Z,95528.69
2022-09-23T08:20:04.404Z,95532.72
2022-09-23T08:23:47.215Z,95534.56
2022-09-23T08:27:30.152Z,95528.25
2022-09-23T08:31:13.675Z,95529.88
2022-09-23T08:34:56.904Z,95527.03
2022-09-23T08:38:41.025Z,95525.84
2022-09-23T08:42:29.552Z,95532.91
2022-09-23T08:46:14.416Z,95525.38
2022-09-23T08:50:03.974Z,95521.69
2022-09-23T08:53:49.971Z,95518.25
2022-09-23T08:57:40.393Z,95516.81
2022-09-23T09:01:27.148Z,95522.06
2022-09-23T09:05:11.406Z,95510.63
2022-09-23T09:08:58.802Z,95507.31
2022-09-23T09:12:44.658Z,95506.47
2022-09-23T09:16:59.101Z,95503.59
2022-09-23T09:20:47.272Z,95509.25
2022-09-23T09:24:33.412Z,95503.88
2022-09-23T09:28:20.042Z,95505.38
2022-09-23T09:32:14.229Z,95501.03
2022-09-23T09:36:17.294Z,95491.25
2022-09-23T09:40:02.022Z,95495.06
2022-09-23T09:43:48.410Z,95483.09
2022-09-23T09:47:38.432Z,95485.59
2022-09-23T09:51:22.928Z,95477.84
2022-09-23T09:55:26.310Z,95471.69
2022-09-23T09:59:12.074Z,95473.59
2022-09-23T10:02:55.788Z,95462.50
2022-09-23T10:06:38.524Z,95460.81
2022-09-23T10:10:33.506Z,95470.09
2022-09-23T10:14:18.595Z,95469.50
2022-09-23T10:18:02.541Z,95459.78
2022-09-23T10:21:45.303Z,95459.47
2022-09-23T10:25:29.433Z,95456.53
2022-09-23T10:29:24.152Z,95448.34
2022-09-23T10:33:27.893Z,95445.06
2022-09-23T10:37:16.967Z,95454.34
2022-09-23T10:41:18.515Z,95451.50
2022-09-23T10:45:25.106Z,95443.72
2022-09-23T10:49:45.556Z,95445.94
2022-09-23T10:53:35.691Z,95433.75
2022-09-23T10:57:41.947Z,95432.16
2022-09-23T11:01:31.982Z,95425.47
2022-09-23T11:05:21.520Z,95421.91
2022-09-23T11:09:12.964Z,95420.41
2022-09-23T11:13:03.037Z,95421.25
2022-09-23T11:17:00.996Z,95421.53
2022-09-23T11:20:49.013Z,95419.19
2022-09-23T11:24:50.269Z,95415.38
2022-09-23T11:28:56.074Z,95415.44
2022-09-23T11:36:53.360Z,95389.44
2022-09-23T11:40:41.056Z,95397.13
2022-09-23T11:44:30.972Z,95388.88
2022-09-23T11:48:16.940Z,95385.50
2022-09-23T11:52:06.456Z,95385.75
2022-09-23T11:55:57.861Z,95378.22
2022-09-23T12:03:44.494Z,95380.78
2022-09-23T12:07:31.782Z,95360.44
2022-09-23T12:11:25.796Z,95355.25
2022-09-23T12:15:18.856Z,95364.41
2022-09-23T12:19:07.669Z,95355.09
2022-09-23T12:22:58.572Z,95355.72
2022-09-23T12:26:41.539Z,95351.03
2022-09-23T12:30:29.290Z,95351.72
2022-09-23T12:34:22.168Z,95350.22
2022-09-23T12:38:13.742Z,95342.50
2022-09-23T12:42:01.470Z,95339.31
2022-09-23T12:45:45.596Z,95341.47
2022-09-23T12:49:37.697Z,95338.69
2022-09-23T12:53:54.551Z,95332.66
2022-09-23T12:57:43.696Z,95325.94
2022-09-23T13:01:28.070Z,95328.28
2022-09-23T13:05:37.773Z,95312.34
2022-09-23T13:09:24.881Z,95311.88
2022-09-23T13:13:08.260Z,95305.84
2022-09-23T13:16:52.635Z,95298.75
2022-09-23T13:20:41.010Z,95289.22
2022-09-23T13:24:36.920Z,95283.69
2022-09-23T13:28:31.778Z,95279.19
2022-09-23T13:32:18.325Z,95270.09
2022-09-23T13:36:04.200Z,95270.09
2022-09-23T13:39:47.419Z,95265.53
2022-09-23T13:43:33.532Z,95267.69
2022-09-23T13:47:20.918Z,95258.59
2022-09-23T13:51:10.100Z,95254.06
2022-09-23T13:54:52.923Z,95254.06
2022-09-23T13:58:36.920Z,95255.94
2022-09-23T14:02:26.961Z,95256.16
2022-09-23T14:06:12.793Z,95249.69
2022-09-23T14:09:56.757Z,95244.34
2022-09-23T14:13:43.415Z,95240.44
2022-09-23T14:17:27.664Z,95240.88
2022-09-23T14:21:28.613Z,95242.59
2022-09-23T14:25:14.707Z,95238.34
2022-09-23T14:28:57.798Z,95229.03
2022-09-23T14:32:42.138Z,95223.97
2022-09-23T14:36:42.403Z,95226.09
2022-09-23T14:40:27.711Z,95221.69
2022-09-23T14:44:22.268Z,95220.50
2022-09-23T14:48:11.311Z,95206.00
2022-09-23T14:51:56.179Z,95220.03
2022-09-23T14:55:39.534Z,95209.06
2022-09-23T14:59:27.595Z,95220.31
2022-09-23T15:03:15.960Z,95212.75
2022-09-23T15:07:03.371Z,95215.56
2022-09-23T15:10:46.911Z,95201.16
2022-09-23T15:14:40.994Z,95193.63
2022-09-23T15:18:26.800Z,95204.41
2022-09-23T15:22:11.121Z,95199.84
2022-09-23T15:25:56.095Z,95188.66
2022-09-23T15:29:39.174Z,95185.91
2022-09-23T15:33:27.821Z,95191.97
2022-09-23T15:37:12.441Z,95184.44
2022-09-23T15:40:55.538Z,95188.47
2022-09-23T15:44:38.438Z,95197.63
2022-09-23T15:48:23.080Z,95183.56
2022-09-23T15:52:12.342Z,95180.09
2022-09-23T15:55:55.407Z,95188.50
2022-09-23T15:59:38.172Z,95180.56
2022-09-23T16:03:23.119Z,95180.13
2022-09-23T16:07:05.879Z,95188.53
2022-09-23T16:10:50.116Z,95185.66
2022-09-23T16:14:32.856Z,95192.63
2022-09-23T16:18:15.699Z,95188.88
2022-09-23T16:21:58.525Z,95180.84
2022-09-23T16:25:43.975Z,95182.97
2022-09-23T16:29:28.380Z,95182.16
2022-09-23T16:33:11.177Z,95191.97
2022-09-23T16:36:53.917Z,95189.75
2022-09-23T16:40:36.749Z,95191.06
2022-09-23T16:44:19.576Z,95187.28
2022-09-23T16:48:03.861Z,95194.44
2022-09-23T16:51:46.540Z,95199.13
2022-09-23T16:55:29.206Z,95196.88
2022-09-23T16:59:11.945Z,95194.06
2022-09-23T17:03:12.474Z,95198.97
2022-09-23T17:06:56.675Z,95198.53
2022-09-23T17:10:39.424Z,95197.81
2022-09-23T17:14:22.150Z,95197.63
2022-09-23T17:18:05.265Z,95200.31
2022-09-23T17:21:47.887Z,95208.91
2022-09-23T17:25:32.395Z,95215.38
2022-09-23T17:29:15.835Z,95215.50
2022-09-23T17:32:58.641Z,95219.09
2022-09-23T17:36:41.357Z,95224.19
2022-09-23T17:40:26.186Z,95221.78
2022-09-23T17:44:12.181Z,95230.06
2022-09-23T17:47:54.998Z,95232.56
2022-09-23T17:51:37.798Z,95227.09
2022-09-23T17:55:20.478Z,95232.59
2022-09-23T17:59:03.677Z,95221.66
2022-09-23T18:02:51.168Z,95224.66
2022-09-23T18:06:36.222Z,95227.41
2022-09-23T18:10:18.907Z,95217.41
2022-09-23T18:14:03.474Z,95223.19
2022-09-23T18:17:47.494Z,95223.91
2022-09-23T18:21:32.083Z,95224.13
2022-09-23T18:25:37.696Z,95217.94
2022-09-23T18:29:19.443Z,95219.09
2022-09-23T18:33:03.783Z,95218.22
2022-09-23T18:36:46.857Z,95219.47
2022-09-23T18:40:29.667Z,95219.75
2022-09-23T18:44:12.411Z,95209.09
2022-09-23T18:48:12.819Z,95222.09
2022-09-23T18:51:58.206Z,95228.88
2022-09-23T18:55:40.935Z,95231.22
2022-09-23T18:59:27.768Z,95233.63
2022-09-23T19:03:10.553Z,95226.41
2022-09-23T19:06:53.714Z,95230.78
2022-09-23T19:10:37.820Z,95224.91
2022-09-23T19:14:20.884Z,95224.91
2022-09-23T19:18:03.707Z,95218.00
2022-09-23T19:21:46.520Z,95225.38
2022-09-23T19:25:29.354Z,95219.97
2022-09-23T19:29:20.279Z,95212.94
2022-09-23T19:33:03.030Z,95217.53
2022-09-23T19:36:47.349Z,95217.53
2022-09-23T19:40:30.817Z,95216.78
2022-09-23T19:44:15.222Z,95213.91
2022-09-23T19:47:58.224Z,95209.09
2022-09-23T19:51:41.144Z,95211.63
2022-09-23T19:55:23.998Z,95206.44
2022-09-23T19:59:09.222Z,95213.22
2022-09-23T20:02:53.303Z,95217.13
2022-09-23T20:06:38.226Z,95209.19
2022-09-23T20:10:20.925Z,95197.56
2022-09-23T20:14:05.858Z,95204.56
2022-09-23T20:17:48.727Z,95208.66
2022-09-23T20:21:33.751Z,95202.31
2022-09-23T20:25:16.841Z,95200.00
2022-09-23T20:29:01.461Z,95194.81
2022-09-23T20:32:45.012Z,95199.47
2022-09-23T20:36:28.977Z,95188.06
2022-09-23T20:40:13.232Z,95194.72
2022-09-23T20:43:59.393Z,95192.09
2022-09-23T20:47:42.540Z,95191.66
2022-09-23T20:51:26.673Z,95183.50
2022-09-23T20:55:09.771Z,95182.47
2022-09-23T20:58:54.113Z,95183.50
2022-09-23T21:02:37.027Z,95177.63
2022-09-23T21:06:19.947Z,95177.34
2022-09-23T21:10:04.741Z,95172.94
2022-09-23T21:13:48.225Z,95164.06
2022-09-23T21:17:34.581Z,95174.63
2022-09-23T21:21:19.384Z,95168.53
2022-09-23T21:29:06.635Z,95162.88
2022-09-23T21:32:50.865Z,95171.84
2022-09-23T21:36:36.967Z,95163.34
2022-09-23T21:40:37.253Z,95163.34
2022-09-23T21:44:20.285Z,95168.63
2022-09-23T21:48:05.424Z,95162.97
2022-09-23T21:51:48.135Z,95161.44
2022-09-23T21:55:31.054Z,95151.34
2022-09-23T21:59:16.481Z,95163.38
2022-09-23T22:03:00.725Z,95175.41
2022-09-23T22:06:45.329Z,95151.50
2022-09-23T22:10:29.326Z,95155.63
2022-09-23T22:14:15.451Z,95149.16
2022-09-23T22:18:02.317Z,95149.97
2022-09-23T22:21:47.025Z,95143.88
2022-09-23T22:25:34.817Z,95140.63
2022-09-23T22:29:38.499Z,95153.25
2022-09-23T22:33:21.340Z,95143.72
2022-09-23T22:37:08.397Z,95137.84
2022-09-23T22:40:51.669Z,95126.84
2022-09-23T22:44:34.704Z,95144.31
2022-09-23T22:48:19.159Z,95131.31
2022-09-23T22:52:09.136Z,95141.53
2022-09-23T22:55:59.319Z,95134.50
2022-09-23T22:59:54.528Z,95138.59
2022-09-23T23:03:37.214Z,95133.19
2022-09-23T23:07:22.255Z,95123.06
2022-09-23T23:11:10.284Z,95114.13
2022-09-23T23:14:53.111Z,95100.72
2022-09-23T23:18:40.106Z,95115.75
2022-09-23T23:22:27.414Z,95113.75
2022-09-23T23:26:12.593Z,95109.88
2022-09-23T23:29:55.375Z,95112.28
2022-09-23T23:33:38.676Z,95114.50
2022-09-23T23:37:21.448Z,95115.28
2022-09-23T23:41:06.953Z,95100.94
2022-09-23T23:44:49.624Z,95105.78
2022-09-23T23:48:34.451Z,95099.47
2022-09-23T23:52:17.170Z,95109.66
2022-09-23T23:56:02.483Z,95098.16
2022-09-23T23:59:47.171Z,95105.69
